ADDS METAR Data INFO
IDs: Format: Raw Decoded Include TAF

Data at: 0711 UTC 16 Jan 2018

K3I2 160655Z AUTO 00000KT 10SM OVC020 00/M03 A3037 RMK AO2 T00001031
K3I2 160635Z AUTO 00000KT 10SM OVC018 00/M03 A3036 RMK AO2 T00001030
K3I2 160615Z AUTO 00000KT 10SM BKN018 OVC027 00/M03 A3037 RMK AO2 T00001031
K3I2 160555Z AUTO 00000KT 10SM BKN018 BKN025 BKN036 00/M02 A3037 RMK AO2 T00001024 10011 21002 400311144
K3I2 160535Z AUTO 00000KT 10SM SCT002 SCT007 BKN016 00/M02 A3037 RMK AO2 T00001020
K3I2 160515Z AUTO 22004KT 10SM SCT002 SCT007 BKN014 00/M02 A3036 RMK AO2 T00011020
K3I2 160455Z AUTO 25004KT 10SM SCT002 BKN016 BKN022 00/M02 A3037 RMK AO2 T00031021
K3I2 160435Z AUTO 00000KT 10SM SCT018 SCT025 BKN039 01/M02 A3036 RMK AO2 T00051021
K3I2 160415Z AUTO 24003KT 10SM SCT018 OVC041 01/M02 A3036 RMK AO2 T00061020
K3I2 160355Z AUTO 00000KT 10SM SCT037 BKN044 01/M02 A3036 RMK AO2 T00071020
K3I2 160335Z AUTO 25003KT 10SM BKN042 BKN048 01/M02 A3035 RMK AO2 T00101021
K3I2 160315Z AUTO 00000KT 10SM BKN044 OVC050 01/M02 A3035 RMK AO2 T00101021
K3I2 160255Z AUTO 00000KT 10SM OVC048 01/M02 A3034 RMK AO2 T00101020
K3I2 160235Z AUTO 00000KT 10SM OVC046 01/M02 A3034 RMK AO2 T00101022
K3I2 160215Z AUTO 26003KT 10SM OVC048 01/M03 A3033 RMK AO2 T00111026
K3I2 160155Z AUTO 27003KT 10SM BKN050 01/M03 A3033 RMK AO2 T00101030
K3I2 160135Z AUTO 00000KT 10SM BKN048 00/M02 A3032 RMK AO2 T00001025
K3I2 160115Z AUTO 00000KT 10SM BKN050 00/M02 A3032 RMK AO2 T10021022
K3I2 160055Z AUTO 00000KT 10SM OVC050 00/M03 A3031 RMK AO2 T00001031
K3I2 160035Z AUTO 00000KT 10SM BKN050 00/M03 A3031 RMK AO2 T00011032
K3I2 160015Z AUTO 00000KT 10SM BKN050 00/M02 A3031 RMK AO2 T00001022
K3I2 152355Z AUTO 00000KT 10SM BKN050 00/M03 A3031 RMK AO2 T00001028 10031 20000
K3I2 152335Z AUTO 00000KT 10SM BKN050 00/M03 A3030 RMK AO2 T00001026
K3I2 152315Z AUTO 00000KT 10SM SCT055 00/M04 A3030 RMK AO2 T00001036
K3I2 152255Z AUTO 00000KT 10SM CLR 00/M03 A3029 RMK AO2 T00011029
K3I2 152235Z AUTO 00000KT 10SM SCT060 01/M03 A3029 RMK AO2 T00091035
K3I2 152215Z AUTO 00000KT 10SM CLR 02/M05 A3029 RMK AO2 T00191050
K3I2 152155Z AUTO 00000KT 10SM CLR 03/M06 A3028 RMK AO2 T00281059
K3I2 152135Z AUTO 17003KT 10SM SCT060 SCT075 03/M05 A3028 RMK AO2 T00291055
K3I2 152115Z AUTO 18005KT 10SM CLR 03/M06 A3029 RMK AO2 T00311057
K3I2 152055Z AUTO 15004KT 10SM SCT080 03/M06 A3028 RMK AO2 T00251058
K3I2 152035Z AUTO 20007KT 10SM CLR 03/M06 A3028 RMK AO2 T00261056
K3I2 152015Z AUTO 14004KT 10SM CLR 03/M06 A3028 RMK AO2 T00281062
K3I2 151955Z AUTO 17007KT 10SM CLR 02/M06 A3029 RMK AO2 T00201063
K3I2 151935Z AUTO 17004KT 10SM CLR 02/M07 A3029 RMK AO2 T00201068
K3I2 151915Z AUTO 16006KT 10SM CLR 02/M06 A3030 RMK AO2 T00191062
K3I2 151855Z AUTO 14004KT 10SM CLR 01/M06 A3031 RMK AO2 T00141063
K3I2 151835Z AUTO 11005KT 10SM CLR 01/M07 A3031 RMK AO2 T00061066
K3I2 151815Z AUTO 00000KT 10SM SCT049 00/M06 A3032 RMK AO2 T00011065
K3I2 151755Z AUTO 18005KT 10SM BKN039 BKN049 00/M06 A3034 RMK AO2 T10011064 11001 21095
K3I2 151735Z AUTO 00000KT 10SM OVC037 M01/M06 A3036 RMK AO2 T10071062
K3I2 151715Z AUTO 00000KT 10SM OVC037 M01/M06 A3037 RMK AO2 T10101063
K3I2 151655Z AUTO 13003KT 10SM BKN041 M01/M06 A3038 RMK AO2 T10151062
K3I2 151635Z AUTO 12005KT 10SM SCT043 SCT060 M02/M06 A3040 RMK AO2 T10191057
K3I2 151615Z AUTO 15004KT 10SM SCT060 M02/M06 A3040 RMK AO2 T10231057
K3I2 151555Z AUTO 16006KT 10SM SCT001 SCT060 M02/M06 A3041 RMK AO2 T10251060
K3I2 151535Z AUTO 12003KT 10SM -SN BKN001 BKN006 M04/M06 A3040 RMK AO2 T10371065
K3I2 151515Z AUTO 10004KT 5SM -SN OVC003 M05/M07 A3042 RMK AO2 T10481070
K3I2 151455Z AUTO 00000KT 5SM -SN BKN003 OVC007 M06/M07 A3043 RMK AO2 T10591075
K3I2 151435Z AUTO 00000KT 4SM -SN BKN001 OVC006 M07/M08 A3044 RMK AO2 T10701085
K3I2 151415Z AUTO 00000KT 7SM -SN BKN001 BKN006 OVC012 M07/M09 A3044 RMK AO2 T10721088
K3I2 151355Z AUTO 00000KT 7SM -SN BKN001 OVC010 M08/M09 A3044 RMK AO2 T10781093
K3I2 151335Z AUTO 00000KT 3SM -SN BKN001 OVC004 M08/M10 A3044 RMK AO2 T10841097
K3I2 151315Z AUTO 00000KT 3SM -SN OVC004 M09/M10 A3044 RMK AO2 T10871102
K3I2 151255Z AUTO 00000KT 5SM -SN OVC002 M09/M10 A3044 RMK AO2 T10901105
K3I2 151235Z AUTO 00000KT 1 3/4SM -SN OVC004 M09/M11 A3044 RMK AO2 T10921107
K3I2 151215Z AUTO 00000KT 2SM -SN OVC004 M09/M11 A3044 RMK AO2 T10931110
K3I2 151155Z AUTO 00000KT 4SM -SN OVC004 M09/M11 A3044 RMK AO2 T10951112 11095 21144
K3I2 151135Z AUTO 00000KT 5SM -SN BKN001 BKN007 OVC010 M09/M11 A3044 RMK AO2 T10951115
K3I2 151115Z AUTO 00000KT 10SM SCT001 BKN009 BKN014 M10/M12 A3044 RMK AO2 T10981118
K3I2 151055Z AUTO 00000KT 10SM CLR M10/M12 A3044 RMK AO2 T11021120
K3I2 151035Z AUTO 00000KT 10SM CLR M11/M12 A3044 RMK AO2 T11061125
K3I2 151015Z AUTO 00000KT 10SM CLR M11/M12 A3044 RMK AO2 T11091125
K3I2 150955Z AUTO 00000KT 10SM CLR M11/M13 A3044 RMK AO2 T11101126
K3I2 150935Z AUTO 00000KT 10SM CLR M12/M13 A3044 RMK AO2 T11161133
K3I2 150915Z AUTO 00000KT 10SM CLR M12/M14 A3044 RMK AO2 T11211137
K3I2 150855Z AUTO 00000KT 10SM CLR M12/M14 A3045 RMK AO2 T11231140
K3I2 150835Z AUTO 00000KT 10SM CLR M13/M14 A3045 RMK AO2 T11271143
K3I2 150815Z AUTO 00000KT 10SM CLR M13/M15 A3045 RMK AO2 T11331149
K3I2 150755Z AUTO 00000KT 10SM CLR M14/M15 A3045 RMK AO2 T11361153
K3I2 150735Z AUTO 00000KT 10SM CLR M14/M15 A3046 RMK AO2 T11371154
K3I2 150715Z AUTO 00000KT 10SM CLR M14/M16 A3046 RMK AO2 T11401157